Time;durP1;ratioP1;P1;durP2;ratioP2;P2;SDS_P1;SDS_P2;PMS_P1;PMS_P2;Temp;Humidity;BMP_temperature;BMP_pressure;BME280_temperature;BME280_humidity;BME280_pressure;Samples;Min_cycle;Max_cycle;Signal;HPM_P1;HPM_P2
2022/09/12 00:01:50;;;;;;;0.40;0.10;;;;;;;16.44;91.19;100752.31;5030234;28;20485;-64
2022/09/12 00:04:15;;;;;;;0.45;0.00;;;;;;;16.45;90.97;100743.44;5030544;28;20022;-60
2022/09/12 00:06:41;;;;;;;1.67;0.00;;;;;;;16.47;91.23;100751.16;5030473;28;20033;-61
2022/09/12 00:09:09;;;;;;;2.33;0.85;;;;;;;16.44;90.90;100757.56;5029178;28;20036;-62
2022/09/12 00:11:36;;;;;;;0.10;0.00;;;;;;;16.47;90.90;100751.97;5028724;28;20068;-65
2022/09/12 00:14:03;;;;;;;0.50;0.00;;;;;;;16.50;90.23;100756.88;5027823;28;20021;-61
2022/09/12 00:16:31;;;;;;;4.22;0.03;;;;;;;16.69;87.60;100752.13;5029948;28;20049;-63
2022/09/12 00:18:56;;;;;;;2.33;0.10;;;;;;;16.72;87.24;100749.97;5028997;28;20518;-62
2022/09/12 00:21:22;;;;;;;0.20;0.00;;;;;;;16.77;86.49;100741.53;5028468;28;20434;-63
2022/09/12 00:23:48;;;;;;;2.33;0.00;;;;;;;16.74;87.03;100745.34;5028838;28;20025;-61
2022/09/12 00:26:14;;;;;;;2.42;0.00;;;;;;;16.68;87.28;100743.41;5029888;28;20026;-64
2022/09/12 00:28:40;;;;;;;1.73;0.03;;;;;;;16.59;88.33;100744.44;5028014;28;20029;-62
2022/09/12 00:31:10;;;;;;;1.48;0.00;;;;;;;16.42;89.60;100742.97;5030006;28;20040;-64
2022/09/12 00:33:35;;;;;;;1.35;0.00;;;;;;;16.34;90.42;100740.38;5029920;28;20443;-62
2022/09/12 00:36:08;;;;;;;0.95;0.00;;;;;;;16.24;90.95;100736.16;5029770;28;20488;-62
2022/09/12 00:38:37;;;;;;;0.50;0.00;;;;;;;16.22;91.16;100735.53;5028566;28;20037;-62
2022/09/12 00:41:04;;;;;;;1.65;0.10;;;;;;;16.26;91.16;100736.00;5028820;28;20431;-66
2022/09/12 00:43:29;;;;;;;0.22;0.00;;;;;;;16.25;90.98;100735.19;5029400;28;20053;-64
2022/09/12 00:45:56;;;;;;;1.65;0.00;;;;;;;16.26;91.12;100738.63;5029452;28;20089;-60
2022/09/12 00:48:33;;;;;;;2.45;0.00;;;;;;;16.16;91.58;100730.97;5028660;28;20075;-64
2022/09/12 00:50:59;;;;;;;2.22;0.00;;;;;;;16.14;92.01;100735.56;5029679;28;20081;-64
2022/09/12 00:53:25;;;;;;;0.00;0.00;;;;;;;16.14;91.34;100732.13;5027296;28;20065;-63
2022/09/12 00:55:52;;;;;;;3.25;0.10;;;;;;;16.11;91.19;100730.66;5029128;28;20128;-66
2022/09/12 00:58:23;;;;;;;4.85;0.10;;;;;;;16.13;91.34;100733.94;5028706;28;20025;-62
2022/09/12 01:00:49;;;;;;;0.03;0.00;;;;;;;16.13;91.37;100723.41;5027228;28;20033;-63
2022/09/12 01:03:18;;;;;;;1.45;0.00;;;;;;;16.10;91.64;100729.03;5027265;28;20372;-64
2022/09/12 01:05:50;;;;;;;2.45;0.00;;;;;;;16.06;91.53;100727.75;5029212;28;20032;-62
2022/09/12 01:08:16;;;;;;;2.22;0.00;;;;;;;16.06;91.69;100725.13;5029096;28;20040;-64
2022/09/12 01:10:42;;;;;;;2.58;0.00;;;;;;;16.09;91.52;100719.50;5029085;28;20037;-64
2022/09/12 01:13:10;;;;;;;1.65;0.03;;;;;;;16.15;90.88;100721.44;5028093;28;20025;-62
2022/09/12 01:15:37;;;;;;;1.40;0.15;;;;;;;16.14;90.61;100714.53;5029457;28;20026;-63
2022/09/12 01:18:06;;;;;;;0.10;0.00;;;;;;;16.12;90.91;100719.16;5028707;28;20029;-63
2022/09/12 01:20:49;;;;;;;1.23;0.08;;;;;;;16.09;91.19;100716.88;5021730;28;20071;-64
2022/09/12 01:23:36;;;;;;;1.65;0.10;;;;;;;16.04;91.77;100710.53;5009270;28;20401;-63
2022/09/12 01:26:20;;;;;;;1.30;0.08;;;;;;;15.97;91.88;100713.03;5011572;28;20084;-63
2022/09/12 01:29:14;;;;;;;4.90;0.10;;;;;;;15.95;92.30;100707.13;5028747;28;20025;-62
2022/09/12 01:32:04;;;;;;;1.13;0.10;;;;;;;15.93;91.98;100714.38;5028572;28;20042;-64
2022/09/12 01:34:36;;;;;;;1.10;0.00;;;;;;;15.93;92.55;100709.94;5028495;28;20076;-65
2022/09/12 01:37:13;;;;;;;1.85;0.03;;;;;;;15.93;92.52;100701.22;5027643;28;20048;-65
2022/09/12 01:40:13;;;;;;;0.28;0.00;;;;;;;15.91;92.27;100708.47;5028105;28;20040;-64
2022/09/12 01:42:44;;;;;;;1.00;0.00;;;;;;;15.85;92.15;100703.91;5026901;28;20045;-62
2022/09/12 01:45:39;;;;;;;2.03;0.65;;;;;;;15.79;91.62;100704.59;5022569;28;20033;-63
2022/09/12 01:48:25;;;;;;;2.05;0.00;;;;;;;15.78;91.10;100709.03;5027548;28;20548;-62
2022/09/12 01:51:01;;;;;;;2.42;0.10;;;;;;;15.82;91.23;100710.31;5028700;28;20033;-63
2022/09/12 01:53:32;;;;;;;0.40;0.00;;;;;;;15.84;91.33;100712.78;5026790;28;20124;-67
2022/09/12 01:56:08;;;;;;;1.45;0.00;;;;;;;15.83;91.56;100711.13;5025954;28;20112;-64
2022/09/12 01:58:52;;;;;;;1.92;0.00;;;;;;;15.87;90.93;100707.16;5028432;28;20029;-65
2022/09/12 02:01:26;;;;;;;1.60;0.00;;;;;;;15.90;90.10;100705.03;5028189;28;20056;-63
2022/09/12 02:04:32;;;;;;;1.48;0.00;;;;;;;15.95;88.82;100706.31;5010169;28;20495;-60
2022/09/12 02:07:00;;;;;;;2.75;0.00;;;;;;;16.08;87.20;100706.53;5028213;28;20049;-64
2022/09/12 02:09:37;;;;;;;1.75;0.00;;;;;;;16.14;85.45;100708.47;5027051;28;20493;-62
2022/09/12 02:12:06;;;;;;;0.88;0.00;;;;;;;16.12;86.06;100715.72;5027366;28;20112;-63
2022/09/12 02:14:45;;;;;;;2.50;0.00;;;;;;;16.04;86.73;100708.72;5028491;28;20037;-63
2022/09/12 02:17:25;;;;;;;0.30;0.00;;;;;;;15.91;88.24;100714.53;5026394;28;20044;-64
2022/09/12 02:20:02;;;;;;;1.65;0.00;;;;;;;15.77;89.76;100706.56;5027924;28;20559;-63
2022/09/12 02:22:30;;;;;;;1.35;0.00;;;;;;;15.68;90.52;100702.34;5027790;28;20037;-63
2022/09/12 02:24:59;;;;;;;0.50;0.10;;;;;;;15.67;90.58;100698.91;5027265;28;20041;-65
2022/09/12 02:27:48;;;;;;;1.30;0.00;;;;;;;15.66;90.53;100694.63;5025549;28;20018;-65
2022/09/12 02:30:15;;;;;;;0.60;0.00;;;;;;;15.64;91.15;100695.78;5027898;28;20463;-63
2022/09/12 02:33:07;;;;;;;4.63;0.00;;;;;;;15.66;90.73;100689.38;5026490;28;20428;-62
2022/09/12 02:35:35;;;;;;;4.53;0.08;;;;;;;15.63;90.52;100689.72;5015156;28;20142;-66
2022/09/12 02:38:34;;;;;;;1.05;0.00;;;;;;;15.64;90.13;100687.91;5027757;28;20168;-60
2022/09/12 02:43:29;;;;;;;2.30;0.00;;;;;;;15.57;90.79;100685.19;4956260;22;20510;-61
2022/09/12 02:45:54;;;;;;;1.17;0.10;;;;;;;15.56;91.38;100683.50;5067868;28;20028;-63
2022/09/12 02:48:32;;;;;;;1.70;0.08;;;;;;;15.52;90.93;100684.84;5067446;28;20066;-64
2022/09/12 02:50:58;;;;;;;0.57;0.00;;;;;;;15.56;91.17;100683.50;5067547;28;20089;-62
2022/09/12 02:53:25;;;;;;;2.28;0.00;;;;;;;15.57;91.35;100687.81;5067820;28;20036;-61
2022/09/12 02:55:51;;;;;;;0.70;0.00;;;;;;;15.51;91.01;100691.91;5067446;28;20471;-62
2022/09/12 02:58:22;;;;;;;0.77;0.00;;;;;;;15.52;90.42;100690.91;5067674;28;20031;-62
2022/09/12 03:01:04;;;;;;;1.35;0.00;;;;;;;15.48;90.76;100684.38;5067553;28;20040;-64
2022/09/12 03:04:03;;;;;;;1.55;0.00;;;;;;;15.47;90.13;100689.78;5067558;28;20097;-65
2022/09/12 03:07:11;;;;;;;0.10;0.00;;;;;;;15.47;89.14;100685.34;5068079;28;20036;-60
2022/09/12 03:09:39;;;;;;;0.20;0.00;;;;;;;15.45;89.73;100689.94;5056490;28;20037;-62
2022/09/12 03:12:24;;;;;;;1.70;0.00;;;;;;;15.48;89.58;100689.63;5047637;28;20048;-62
2022/09/12 03:15:17;;;;;;;0.28;0.05;;;;;;;15.46;89.79;100690.78;5047317;28;20044;-62
2022/09/12 03:18:05;;;;;;;1.10;0.00;;;;;;;15.41;90.14;100691.28;5047358;28;20025;-62
2022/09/12 03:20:43;;;;;;;0.68;0.00;;;;;;;15.41;91.10;100682.59;5029373;28;20029;-64
2022/09/12 03:23:33;;;;;;;1.77;0.00;;;;;;;15.34;91.46;100690.31;5032375;28;20208;-63
2022/09/12 03:26:27;;;;;;;3.45;0.10;;;;;;;15.25;91.32;100691.34;5051364;28;20048;-65
2022/09/12 03:28:55;;;;;;;0.65;0.00;;;;;;;15.23;91.85;100698.56;5032776;28;20035;-67
2022/09/12 03:31:21;;;;;;;0.63;0.05;;;;;;;15.23;92.26;100696.75;5051202;28;20021;-63
2022/09/12 03:33:46;;;;;;;0.98;0.00;;;;;;;15.21;92.35;100696.09;5051031;28;20044;-66
2022/09/12 03:36:17;;;;;;;0.10;0.00;;;;;;;15.25;92.44;100693.97;5050535;28;20048;-62
2022/09/12 03:38:43;;;;;;;2.13;0.08;;;;;;;15.24;92.39;100694.94;5050777;28;20090;-62
2022/09/12 03:41:08;;;;;;;2.25;0.00;;;;;;;15.20;92.25;100704.13;5032548;28;20032;-63
2022/09/12 03:43:34;;;;;;;3.65;0.10;;;;;;;15.16;92.31;100702.84;5050419;28;20531;-62
2022/09/12 03:45:59;;;;;;;1.10;0.00;;;;;;;15.15;92.15;100698.56;5050739;28;20033;-66
2022/09/12 03:48:25;;;;;;;0.57;0.00;;;;;;;15.14;91.64;100700.38;5050720;28;20029;-67
2022/09/12 03:50:50;;;;;;;0.45;0.00;;;;;;;15.14;91.78;100695.13;5050290;28;20032;-66
2022/09/12 03:53:16;;;;;;;0.85;0.00;;;;;;;15.13;91.68;100698.75;5050442;28;20108;-61
2022/09/12 03:55:41;;;;;;;0.38;0.00;;;;;;;15.15;91.40;100688.91;5050332;28;20044;-63
2022/09/12 03:58:07;;;;;;;3.30;0.03;;;;;;;15.15;90.80;100688.91;5050403;28;20107;-63
2022/09/12 04:00:32;;;;;;;3.40;0.00;;;;;;;15.12;90.57;100691.84;5050445;28;20182;-64
2022/09/12 04:02:58;;;;;;;1.45;0.00;;;;;;;15.09;90.76;100692.22;5050641;28;20040;-61
2022/09/12 04:05:24;;;;;;;0.43;0.00;;;;;;;15.08;90.21;100701.09;5050342;28;20021;-66
2022/09/12 04:07:50;;;;;;;0.30;0.00;;;;;;;15.10;90.17;100706.16;5050183;28;20040;-65
2022/09/12 04:10:16;;;;;;;2.20;0.00;;;;;;;15.04;90.76;100701.59;5050191;28;20041;-64
2022/09/12 04:12:42;;;;;;;0.43;0.00;;;;;;;14.98;91.34;100704.88;5049929;28;20458;-65
2022/09/12 04:15:08;;;;;;;0.00;0.00;;;;;;;14.96;91.73;100707.66;5050056;28;20453;-62
2022/09/12 04:17:34;;;;;;;1.02;0.00;;;;;;;14.89;92.08;100717.19;5049980;28;20488;-67
2022/09/12 04:20:00;;;;;;;2.28;0.10;;;;;;;14.87;92.10;100712.09;5049691;28;20020;-64
2022/09/12 04:22:26;;;;;;;0.45;0.00;;;;;;;14.90;92.07;100719.63;5050272;28;20037;-61
2022/09/12 04:24:51;;;;;;;0.20;0.00;;;;;;;14.92;92.00;100720.28;5031890;28;20036;-64
2022/09/12 04:27:17;;;;;;;0.57;0.00;;;;;;;14.92;92.12;100722.91;5049878;28;20448;-66
2022/09/12 04:29:42;;;;;;;2.70;0.22;;;;;;;14.93;91.90;100723.72;5049700;28;20029;-62
2022/09/12 04:32:08;;;;;;;1.00;0.00;;;;;;;14.97;91.54;100724.22;5049867;28;20021;-66
2022/09/12 04:34:33;;;;;;;1.35;0.00;;;;;;;15.00;90.46;100718.63;5048442;28;20086;-65
2022/09/12 04:36:59;;;;;;;2.72;0.00;;;;;;;15.01;89.99;100718.47;5049636;28;20332;-64
2022/09/12 04:39:25;;;;;;;1.65;0.00;;;;;;;15.03;90.16;100721.75;5049971;28;20053;-65
2022/09/12 04:41:50;;;;;;;0.28;0.00;;;;;;;15.02;91.05;100732.41;5049301;28;20392;-62
2022/09/12 04:44:16;;;;;;;1.58;0.00;;;;;;;14.99;91.39;100723.06;5049654;28;20032;-65
2022/09/12 04:46:45;;;;;;;0.20;0.20;;;;;;;15.01;91.58;100725.53;5049367;28;20068;-66
2022/09/12 04:49:12;;;;;;;1.00;0.00;;;;;;;15.01;91.48;100728.97;5031000;28;20028;-63
2022/09/12 04:51:40;;;;;;;1.85;0.00;;;;;;;15.04;90.61;100726.00;5031258;28;20025;-66
2022/09/12 04:54:10;;;;;;;1.45;0.00;;;;;;;15.10;89.33;100716.66;5031411;28;20538;-61
2022/09/12 04:56:41;;;;;;;1.95;0.10;;;;;;;15.13;89.02;100711.03;5049244;28;20452;-64
2022/09/12 04:59:07;;;;;;;0.20;0.00;;;;;;;15.17;88.77;100717.59;5031049;28;20057;-65
2022/09/12 05:01:33;;;;;;;3.20;0.30;;;;;;;15.20;88.26;100727.75;5040161;28;20041;-64
2022/09/12 05:03:59;;;;;;;2.10;0.10;;;;;;;15.20;88.88;100725.13;5069156;28;20143;-64
2022/09/12 05:06:30;;;;;;;0.98;0.20;;;;;;;15.20;88.67;100725.97;5069216;28;20528;-64
2022/09/12 05:08:58;;;;;;;2.72;0.10;;;;;;;15.20;89.41;100731.19;5068913;28;20075;-63
2022/09/12 05:11:28;;;;;;;1.48;0.10;;;;;;;15.21;88.99;100732.03;5068849;28;20027;-66
2022/09/12 05:13:54;;;;;;;1.48;0.00;;;;;;;15.25;89.37;100734.16;5068999;28;20455;-64
2022/09/12 05:16:21;;;;;;;1.65;0.10;;;;;;;15.27;89.54;100736.59;5068784;28;20121;-66
2022/09/12 05:18:47;;;;;;;1.13;0.10;;;;;;;15.25;89.88;100744.66;5069030;28;20039;-66
2022/09/12 05:21:16;;;;;;;1.65;0.30;;;;;;;15.25;89.51;100749.06;5050716;28;20492;-64
2022/09/12 05:23:41;;;;;;;0.90;0.00;;;;;;;15.28;89.65;100751.38;5068919;28;20450;-63
2022/09/12 05:26:11;;;;;;;1.30;0.03;;;;;;;15.32;89.30;100752.66;5068652;28;20020;-64
2022/09/12 05:28:37;;;;;;;2.47;0.10;;;;;;;15.37;88.90;100755.63;5068435;28;20044;-66
2022/09/12 05:31:04;;;;;;;1.13;0.00;;;;;;;15.37;88.85;100753.00;5068714;28;20024;-65
2022/09/12 05:33:31;;;;;;;0.70;0.10;;;;;;;15.35;87.98;100754.16;5068304;28;20041;-63
2022/09/12 05:35:57;;;;;;;11.15;0.30;;;;;;;15.36;88.24;100755.78;5068729;28;20032;-65
2022/09/12 05:38:27;;;;;;;1.73;0.22;;;;;;;15.37;88.59;100747.75;5068628;28;20419;-62
2022/09/12 05:40:53;;;;;;;4.72;0.10;;;;;;;15.40;88.41;100755.28;5050256;28;20570;-65
2022/09/12 05:43:19;;;;;;;2.80;0.03;;;;;;;15.45;87.96;100749.53;5067858;28;20048;-65
2022/09/12 05:45:45;;;;;;;4.43;0.10;;;;;;;15.52;87.49;100755.75;5068155;28;20028;-61
2022/09/12 05:48:10;;;;;;;1.85;0.10;;;;;;;15.58;87.03;100755.91;5068357;28;20089;-62
2022/09/12 05:50:36;;;;;;;1.05;0.00;;;;;;;15.66;86.10;100767.34;5068198;28;20068;-66
2022/09/12 05:53:01;;;;;;;4.35;0.00;;;;;;;15.64;86.27;100754.38;5068033;28;20108;-63
2022/09/12 05:55:28;;;;;;;0.08;0.00;;;;;;;15.62;86.41;100756.38;5068088;28;20029;-67
2022/09/12 05:57:53;;;;;;;1.38;0.05;;;;;;;15.61;85.90;100754.72;5067843;28;20384;-63
2022/09/12 06:00:19;;;;;;;2.33;0.03;;;;;;;15.64;86.28;100764.91;5067851;28;20036;-64
2022/09/12 06:02:52;;;;;;;2.60;0.08;;;;;;;15.63;85.89;100762.44;5049900;28;20424;-63
2022/09/12 06:05:17;;;;;;;2.58;0.10;;;;;;;15.64;86.45;100767.53;5068186;28;20037;-65
2022/09/12 06:07:45;;;;;;;0.82;0.08;;;;;;;15.67;86.45;100759.31;5068103;28;20040;-62
2022/09/12 06:10:11;;;;;;;1.75;0.10;;;;;;;15.72;85.76;100762.25;5049774;28;20072;-63
2022/09/12 06:12:36;;;;;;;0.30;0.20;;;;;;;15.74;85.92;100764.69;5067951;28;20507;-62
2022/09/12 06:15:02;;;;;;;0.63;0.00;;;;;;;15.77;85.92;100761.72;5068001;28;20036;-64
2022/09/12 06:17:28;;;;;;;2.75;0.00;;;;;;;15.79;86.24;100757.94;5049655;28;20029;-63
2022/09/12 06:19:54;;;;;;;4.22;0.20;;;;;;;15.83;86.92;100764.50;5067741;28;20121;-65
2022/09/12 06:22:19;;;;;;;0.80;0.00;;;;;;;15.85;86.05;100757.25;5049456;28;20032;-63
2022/09/12 06:24:45;;;;;;;4.85;0.10;;;;;;;15.92;86.47;100754.78;5049594;28;20027;-67
2022/09/12 06:27:11;;;;;;;0.55;0.08;;;;;;;15.99;85.29;100757.53;5067680;28;20025;-61
2022/09/12 06:29:36;;;;;;;0.35;0.00;;;;;;;16.11;85.76;100756.94;5049737;28;20029;-64
2022/09/12 06:32:02;;;;;;;0.10;0.00;;;;;;;16.30;85.08;100760.13;5067714;28;20032;-65
2022/09/12 06:34:27;;;;;;;1.42;0.10;;;;;;;16.54;84.49;100762.59;5067845;28;20032;-63
2022/09/12 06:36:53;;;;;;;1.73;0.00;;;;;;;16.65;82.87;100759.56;5033208;28;20036;-65
2022/09/12 06:39:21;;;;;;;0.63;0.00;;;;;;;16.70;82.70;100756.41;5067657;28;20028;-64
2022/09/12 06:41:49;;;;;;;0.65;0.00;;;;;;;16.72;82.49;100759.69;5067099;28;20025;-66
2022/09/12 06:44:19;;;;;;;2.38;0.22;;;;;;;16.66;82.53;100763.00;5067831;28;20036;-66
2022/09/12 06:46:46;;;;;;;0.63;0.00;;;;;;;16.61;83.30;100758.25;5049508;28;20468;-65
2022/09/12 06:49:11;;;;;;;1.75;0.00;;;;;;;16.70;82.70;100762.47;5068126;28;20478;-64
2022/09/12 06:51:37;;;;;;;2.00;0.10;;;;;;;16.86;82.12;100764.16;5067681;28;20040;-62
2022/09/12 06:54:03;;;;;;;3.45;0.00;;;;;;;16.96;81.64;100763.91;5067593;28;20037;-64
2022/09/12 06:56:29;;;;;;;1.33;0.00;;;;;;;16.94;81.46;100763.28;5068001;28;20210;-64
2022/09/12 06:58:56;;;;;;;0.45;0.00;;;;;;;16.95;80.70;100764.91;5071342;28;20107;-63
2022/09/12 07:01:27;;;;;;;3.00;0.10;;;;;;;17.08;81.16;100763.28;5069921;28;20036;-67
2022/09/12 07:03:58;;;;;;;1.27;0.00;;;;;;;17.25;80.02;100762.13;5041890;28;20154;-62
2022/09/12 07:06:30;;;;;;;0.35;0.00;;;;;;;17.38;78.13;100765.97;5051944;28;20103;-67
2022/09/12 07:09:02;;;;;;;2.40;0.05;;;;;;;17.45;77.89;100766.88;5032944;28;20043;-63
2022/09/12 07:11:30;;;;;;;0.05;0.00;;;;;;;17.39;78.98;100768.41;5054134;28;20518;-67
2022/09/12 07:13:58;;;;;;;0.80;0.03;;;;;;;17.34;80.03;100773.41;5059782;28;20530;-66
2022/09/12 07:16:24;;;;;;;0.10;0.00;;;;;;;17.37;78.99;100757.22;5071116;28;20029;-65
2022/09/12 07:18:58;;;;;;;1.33;0.20;;;;;;;17.44;78.38;100758.16;5067345;28;20028;-63
2022/09/12 07:21:25;;;;;;;0.10;0.00;;;;;;;17.49;78.90;100768.09;5070901;28;20024;-65
2022/09/12 07:23:51;;;;;;;0.50;0.10;;;;;;;17.50;78.85;100765.28;5070909;28;20036;-67
2022/09/12 07:26:17;;;;;;;4.03;0.10;;;;;;;17.52;79.19;100773.84;5042136;28;20047;-65
2022/09/12 07:28:43;;;;;;;1.65;0.08;;;;;;;17.54;78.79;100771.03;5051094;28;20033;-65
2022/09/12 07:31:16;;;;;;;2.30;0.10;;;;;;;17.54;77.93;100766.56;5050486;28;20087;-63
2022/09/12 07:33:42;;;;;;;1.35;0.00;;;;;;;17.51;78.91;100766.94;5052636;28;20567;-65
2022/09/12 07:36:14;;;;;;;1.42;0.10;;;;;;;17.50;78.63;100764.47;5055794;28;20502;-67
2022/09/12 07:38:40;;;;;;;0.85;0.35;;;;;;;17.52;79.30;100773.84;5051163;28;20036;-67
2022/09/12 07:41:12;;;;;;;1.85;0.10;;;;;;;17.53;77.80;100770.19;5050626;28;20317;-66
2022/09/12 07:43:39;;;;;;;2.45;0.10;;;;;;;17.56;78.81;100769.84;5050254;28;20059;-64
2022/09/12 07:46:05;;;;;;;4.20;0.10;;;;;;;17.56;78.85;100779.56;5050559;28;20029;-65
2022/09/12 07:48:30;;;;;;;2.60;0.10;;;;;;;17.58;78.84;100777.56;5032574;28;20571;-66
2022/09/12 07:51:00;;;;;;;0.63;0.10;;;;;;;17.62;78.44;100778.00;5049974;28;20048;-67
2022/09/12 07:53:30;;;;;;;2.22;0.00;;;;;;;17.67;78.64;100775.69;5050834;28;20029;-65
2022/09/12 07:55:56;;;;;;;1.75;0.10;;;;;;;17.70;78.59;100775.31;5062970;28;20045;-64
2022/09/12 07:58:22;;;;;;;2.13;0.10;;;;;;;17.71;78.56;100777.78;5068061;28;20025;-64
2022/09/12 08:00:48;;;;;;;5.57;0.30;;;;;;;17.70;78.40;100788.50;5059207;28;20041;-65
2022/09/12 08:03:13;;;;;;;0.70;0.00;;;;;;;17.69;77.18;100784.22;5064688;28;20039;-66
2022/09/12 08:05:39;;;;;;;0.43;0.00;;;;;;;17.71;77.24;100787.50;5065025;28;20028;-65
2022/09/12 08:08:04;;;;;;;0.20;0.00;;;;;;;17.73;77.32;100780.22;5051206;28;20031;-65
2022/09/12 08:10:30;;;;;;;0.90;0.00;;;;;;;17.75;77.21;100784.31;5057600;28;20195;-67
2022/09/12 08:12:57;;;;;;;0.68;0.00;;;;;;;17.80;77.10;100786.41;5057630;28;20471;-65
2022/09/12 08:15:23;;;;;;;0.28;0.00;;;;;;;17.82;76.46;100779.94;5065249;28;20097;-65
2022/09/12 08:17:49;;;;;;;0.60;0.10;;;;;;;17.83;76.80;100788.66;5067282;28;20079;-64
2022/09/12 08:20:16;;;;;;;0.77;0.05;;;;;;;17.87;76.68;100789.94;5067899;28;20538;-66
2022/09/12 08:22:42;;;;;;;0.82;0.20;;;;;;;17.99;76.46;100796.34;5051393;28;20399;-66
2022/09/12 08:25:08;;;;;;;2.72;0.10;;;;;;;18.12;76.28;100793.06;5051855;28;20031;-66
2022/09/12 08:27:33;;;;;;;1.27;0.40;;;;;;;18.26;76.60;100789.56;5060497;28;20112;-64
2022/09/12 08:29:59;;;;;;;2.10;0.20;;;;;;;18.35;77.13;100785.00;5050332;28;20335;-64
2022/09/12 08:32:25;;;;;;;1.98;0.20;;;;;;;18.52;77.27;100778.44;5062697;28;20400;-64
2022/09/12 08:34:50;;;;;;;0.52;0.10;;;;;;;18.80;75.82;100783.81;5057471;28;20036;-66
2022/09/12 08:37:16;;;;;;;0.82;0.03;;;;;;;18.95;75.36;100781.06;5055823;28;20033;-65
2022/09/12 08:39:42;;;;;;;2.92;0.10;;;;;;;19.03;74.60;100780.94;5050358;28;20033;-64
2022/09/12 08:42:16;;;;;;;1.17;0.10;;;;;;;19.04;75.44;100785.22;5043847;28;20048;-64
2022/09/12 08:45:09;;;;;;;0.73;0.10;;;;;;;18.98;73.85;100780.69;5063767;28;20058;-66
2022/09/12 08:47:44;;;;;;;1.42;0.05;;;;;;;18.96;74.21;100782.72;5063741;28;20029;-65
2022/09/12 08:50:09;;;;;;;9.35;0.20;;;;;;;18.96;74.99;100780.88;5058247;28;20033;-64
2022/09/12 08:52:37;;;;;;;0.90;0.10;;;;;;;18.94;73.05;100774.97;5049070;28;20108;-65
2022/09/12 08:55:12;;;;;;;1.10;0.10;;;;;;;18.93;73.86;100776.00;5049564;28;20040;-64
2022/09/12 08:57:38;;;;;;;1.95;0.05;;;;;;;19.01;73.45;100782.97;5065170;28;20032;-66
2022/09/12 09:00:06;;;;;;;3.45;0.10;;;;;;;19.18;72.15;100777.19;5061502;28;20071;-63
2022/09/12 09:02:37;;;;;;;2.00;0.00;;;;;;;19.27;71.80;100777.88;5067797;28;20119;-66
2022/09/12 09:05:19;;;;;;;0.82;0.10;;;;;;;19.20;70.36;100779.66;5057213;28;20036;-65
2022/09/12 09:08:07;;;;;;;3.63;0.10;;;;;;;19.25;69.70;100777.25;5058035;28;20098;-66
2022/09/12 09:11:10;;;;;;;3.35;0.10;;;;;;;19.39;67.96;100778.94;5060409;28;20112;-65
2022/09/12 09:17:10;;;;;;;1.17;0.08;;;;;;;19.43;69.50;100780.19;5051153;28;20084;-65
2022/09/12 09:19:39;;;;;;;2.65;0.10;;;;;;;19.47;70.75;100775.31;5066931;28;20037;-64
2022/09/12 09:22:19;;;;;;;1.77;0.13;;;;;;;19.54;71.52;100774.38;5058173;28;20032;-65
2022/09/12 09:24:50;;;;;;;1.70;0.55;;;;;;;19.64;71.40;100766.09;5056363;28;20541;-63
2022/09/12 09:27:38;;;;;;;1.52;0.30;;;;;;;19.59;71.94;100762.41;5047951;28;20044;-66
2022/09/12 09:30:07;;;;;;;2.10;0.47;;;;;;;19.57;71.55;100759.16;5053173;28;20072;-64
2022/09/12 09:32:39;;;;;;;2.30;0.90;;;;;;;19.74;70.29;100768.41;5066934;28;20040;-63
2022/09/12 09:35:17;;;;;;;1.67;0.75;;;;;;;19.98;68.41;100757.28;5065864;28;20380;-65
2022/09/12 09:38:21;;;;;;;3.20;0.68;;;;;;;20.13;64.75;100755.28;5067373;28;20035;-65
2022/09/12 09:41:17;;;;;;;1.92;0.28;;;;;;;20.16;63.03;100760.19;5061705;28;20067;-65
2022/09/12 09:43:43;;;;;;;1.27;0.40;;;;;;;20.17;66.32;100751.25;5043604;28;20055;-65
2022/09/12 09:46:10;;;;;;;3.65;0.90;;;;;;;20.38;64.18;100754.75;5047834;28;20035;-67
2022/09/12 09:48:40;;;;;;;2.38;0.98;;;;;;;20.51;64.56;100752.94;5046642;28;20041;-64
2022/09/12 09:51:08;;;;;;;1.92;0.98;;;;;;;20.56;64.51;100743.56;5055454;28;20028;-64
2022/09/12 09:53:56;;;;;;;4.97;1.40;;;;;;;20.54;63.29;100749.06;5051991;28;20017;-65
2022/09/12 09:56:32;;;;;;;4.43;1.33;;;;;;;20.48;65.60;100740.09;5056874;28;20036;-66
2022/09/12 09:59:10;;;;;;;3.45;1.58;;;;;;;20.45;67.27;100740.50;5049065;28;20028;-64
2022/09/12 10:01:36;;;;;;;5.07;1.92;;;;;;;20.50;67.30;100724.03;5053186;28;20123;-64
2022/09/12 10:04:02;;;;;;;1.95;0.98;;;;;;;20.59;67.31;100722.81;5057620;28;20032;-66
2022/09/12 10:06:33;;;;;;;3.13;1.05;;;;;;;20.65;66.08;100722.00;5052752;28;20033;-64
2022/09/12 10:09:18;;;;;;;3.50;1.38;;;;;;;20.67;67.57;100719.97;5056238;28;20664;-66
2022/09/12 10:11:45;;;;;;;2.80;0.80;;;;;;;20.80;66.53;100719.94;5048475;28;20083;-63
2022/09/12 10:14:28;;;;;;;3.40;0.70;;;;;;;21.09;59.79;100723.97;5052759;28;20039;-65
2022/09/12 10:16:56;;;;;;;1.45;0.30;;;;;;;21.26;62.63;100719.09;5054394;28;20067;-66
2022/09/12 10:19:33;;;;;;;1.05;0.32;;;;;;;21.12;63.39;100722.75;5052029;28;20040;-68
2022/09/12 10:21:59;;;;;;;2.55;0.35;;;;;;;20.94;65.08;100719.94;5054344;28;20526;-68
2022/09/12 10:24:31;;;;;;;2.13;0.40;;;;;;;20.88;66.26;100714.44;5066876;28;20025;-66
2022/09/12 10:27:12;;;;;;;1.42;0.30;;;;;;;20.85;66.72;100712.19;5068019;28;20025;-62
2022/09/12 10:29:46;;;;;;;7.15;0.70;;;;;;;20.93;66.29;100707.69;5066038;28;20428;-66
2022/09/12 10:32:22;;;;;;;0.60;0.20;;;;;;;21.05;65.97;100711.34;5065262;28;20033;-62
2022/09/12 10:34:52;;;;;;;0.75;0.17;;;;;;;21.24;63.81;100709.72;5059430;28;20036;-66
2022/09/12 10:37:34;;;;;;;0.63;0.10;;;;;;;21.50;58.12;100706.97;5063305;28;20028;-62
2022/09/12 10:40:01;;;;;;;0.82;0.08;;;;;;;21.59;61.09;100699.59;5060033;28;20066;-66
2022/09/12 10:42:50;;;;;;;1.35;0.00;;;;;;;21.73;57.66;100706.47;5059104;28;20053;-62
2022/09/12 10:45:19;;;;;;;0.30;0.05;;;;;;;21.89;61.08;100705.13;5055880;28;20032;-64
2022/09/12 10:47:45;;;;;;;0.10;0.00;;;;;;;21.96;62.08;100701.44;5054994;28;20039;-64
2022/09/12 10:50:22;;;;;;;0.10;0.00;;;;;;;22.05;60.56;100702.03;5059016;28;20069;-63
2022/09/12 10:52:48;;;;;;;1.00;0.10;;;;;;;22.24;60.21;100694.94;5064887;28;20040;-64
2022/09/12 10:55:14;;;;;;;0.82;0.00;;;;;;;22.27;59.59;100692.66;5060888;28;20542;-64
2022/09/12 10:58:20;;;;;;;0.30;0.00;;;;;;;22.07;58.06;100690.16;5057229;28;20028;-63
2022/09/12 11:00:56;;;;;;;0.10;0.00;;;;;;;22.07;60.81;100690.16;5060884;28;20428;-63
2022/09/12 11:03:33;;;;;;;0.15;0.00;;;;;;;22.29;56.78;100697.75;5060451;28;20025;-62
2022/09/12 11:06:00;;;;;;;0.10;0.00;;;;;;;22.31;56.87;100695.69;5055526;28;20526;-65
2022/09/12 11:08:54;;;;;;;0.00;0.00;;;;;;;22.24;55.83;100695.75;5043366;28;20024;-64
2022/09/12 11:11:19;;;;;;;0.13;0.00;;;;;;;22.48;55.51;100696.81;5040906;28;20036;-65
2022/09/12 11:14:39;;;;;;;2.28;0.00;;;;;;;22.53;55.22;100699.63;5062829;28;20085;-64
2022/09/12 11:17:34;;;;;;;0.10;0.00;;;;;;;22.53;55.84;100696.97;4948029;28;20593;-66
2022/09/12 11:20:25;;;;;;;0.03;0.00;;;;;;;22.38;57.24;100699.13;4956683;28;20088;-65
2022/09/12 11:22:59;;;;;;;0.40;0.00;;;;;;;22.15;57.54;100695.22;4951435;28;20576;-65
2022/09/12 11:25:40;;;;;;;0.07;0.00;;;;;;;22.17;58.71;100703.78;4953037;28;20035;-64
2022/09/12 11:28:30;;;;;;;0.00;0.00;;;;;;;22.09;57.65;100698.72;4957572;28;20774;-64
2022/09/12 11:31:28;;;;;;;0.05;0.00;;;;;;;22.08;56.09;100698.94;4958926;28;20125;-67
2022/09/12 11:33:58;;;;;;;1.23;0.00;;;;;;;22.23;57.62;100688.00;4969376;28;20035;-65
2022/09/12 11:36:35;;;;;;;0.10;0.00;;;;;;;22.22;56.97;100689.03;4967347;28;20058;-65
2022/09/12 11:39:10;;;;;;;0.10;0.00;;;;;;;22.18;59.36;100686.84;4960589;28;20231;-63
2022/09/12 11:41:40;;;;;;;1.50;0.00;;;;;;;22.26;60.25;100683.06;4949020;28;20054;-65
2022/09/12 11:44:23;;;;;;;0.08;0.00;;;;;;;22.26;58.67;100687.56;4963646;28;20436;-62
2022/09/12 11:46:48;;;;;;;1.35;0.00;;;;;;;22.31;58.39;100685.09;4983899;28;20026;-64
2022/09/12 11:49:27;;;;;;;2.72;0.00;;;;;;;22.44;59.74;100683.16;5060992;28;20095;-64
2022/09/12 11:51:53;;;;;;;0.10;0.00;;;;;;;22.38;60.59;100688.50;5066255;28;20465;-64